sensor_id;sensor_type;location;lat;lon;timestamp;P1;durP1;ratioP1;P2;durP2;ratioP2
78131;SDS011;67381;47.672;9.380;2023-12-20T00:02:14;5.05;;;3.45;;
78131;SDS011;67381;47.672;9.380;2023-12-20T00:04:41;6.18;;;3.65;;
78131;SDS011;67381;47.672;9.380;2023-12-20T00:07:08;6.47;;;3.65;;
78131;SDS011;67381;47.672;9.380;2023-12-20T00:09:35;6.65;;;4.18;;
78131;SDS011;67381;47.672;9.380;2023-12-20T00:12:02;5.07;;;3.55;;
78131;SDS011;67381;47.672;9.380;2023-12-20T00:14:29;6.65;;;3.63;;
78131;SDS011;67381;47.672;9.380;2023-12-20T00:16:56;5.72;;;3.60;;
78131;SDS011;67381;47.672;9.380;2023-12-20T00:19:23;6.28;;;3.67;;
78131;SDS011;67381;47.672;9.380;2023-12-20T00:21:51;4.90;;;3.20;;
78131;SDS011;67381;47.672;9.380;2023-12-20T00:24:18;5.15;;;3.65;;
78131;SDS011;67381;47.672;9.380;2023-12-20T00:26:45;6.75;;;3.22;;
78131;SDS011;67381;47.672;9.380;2023-12-20T00:29:13;5.70;;;3.47;;
78131;SDS011;67381;47.672;9.380;2023-12-20T00:31:40;5.13;;;3.00;;
78131;SDS011;67381;47.672;9.380;2023-12-20T00:34:07;5.68;;;3.40;;
78131;SDS011;67381;47.672;9.380;2023-12-20T00:36:34;5.60;;;3.90;;
78131;SDS011;67381;47.672;9.380;2023-12-20T00:39:01;5.10;;;3.22;;
78131;SDS011;67381;47.672;9.380;2023-12-20T00:41:29;5.35;;;3.33;;
78131;SDS011;67381;47.672;9.380;2023-12-20T00:43:56;5.75;;;3.40;;
78131;SDS011;67381;47.672;9.380;2023-12-20T00:46:23;5.85;;;3.53;;
78131;SDS011;67381;47.672;9.380;2023-12-20T00:48:53;4.93;;;3.30;;
78131;SDS011;67381;47.672;9.380;2023-12-20T00:51:20;6.35;;;3.50;;
78131;SDS011;67381;47.672;9.380;2023-12-20T00:53:49;4.90;;;3.15;;
78131;SDS011;67381;47.672;9.380;2023-12-20T00:56:17;5.75;;;3.67;;
78131;SDS011;67381;47.672;9.380;2023-12-20T00:58:43;7.28;;;3.70;;
78131;SDS011;67381;47.672;9.380;2023-12-20T01:01:11;5.88;;;3.35;;
78131;SDS011;67381;47.672;9.380;2023-12-20T01:03:38;8.68;;;3.22;;
78131;SDS011;67381;47.672;9.380;2023-12-20T01:06:05;5.57;;;3.50;;
78131;SDS011;67381;47.672;9.380;2023-12-20T01:08:35;4.05;;;2.78;;
78131;SDS011;67381;47.672;9.380;2023-12-20T01:11:04;5.57;;;3.30;;
78131;SDS011;67381;47.672;9.380;2023-12-20T01:13:34;5.32;;;3.47;;
78131;SDS011;67381;47.672;9.380;2023-12-20T01:16:02;4.75;;;2.75;;
78131;SDS011;67381;47.672;9.380;2023-12-20T01:18:29;5.47;;;3.65;;
78131;SDS011;67381;47.672;9.380;2023-12-20T01:21:00;4.93;;;3.42;;
78131;SDS011;67381;47.672;9.380;2023-12-20T01:23:28;5.78;;;3.50;;
78131;SDS011;67381;47.672;9.380;2023-12-20T01:25:55;5.82;;;3.47;;
78131;SDS011;67381;47.672;9.380;2023-12-20T01:28:22;6.85;;;4.18;;
78131;SDS011;67381;47.672;9.380;2023-12-20T01:30:49;8.00;;;3.70;;
78131;SDS011;67381;47.672;9.380;2023-12-20T01:33:16;5.28;;;3.47;;
78131;SDS011;67381;47.672;9.380;2023-12-20T01:35:43;5.93;;;3.70;;
78131;SDS011;67381;47.672;9.380;2023-12-20T01:38:10;6.18;;;3.53;;
78131;SDS011;67381;47.672;9.380;2023-12-20T01:40:37;5.47;;;3.55;;
78131;SDS011;67381;47.672;9.380;2023-12-20T01:43:06;5.88;;;3.40;;
78131;SDS011;67381;47.672;9.380;2023-12-20T01:45:34;7.10;;;3.58;;
78131;SDS011;67381;47.672;9.380;2023-12-20T01:48:01;8.18;;;4.30;;
78131;SDS011;67381;47.672;9.380;2023-12-20T01:50:29;4.82;;;3.60;;
78131;SDS011;67381;47.672;9.380;2023-12-20T01:53:01;5.20;;;3.35;;
78131;SDS011;67381;47.672;9.380;2023-12-20T01:55:31;5.60;;;3.90;;
78131;SDS011;67381;47.672;9.380;2023-12-20T01:57:59;5.13;;;3.30;;
78131;SDS011;67381;47.672;9.380;2023-12-20T02:00:26;6.90;;;3.85;;
78131;SDS011;67381;47.672;9.380;2023-12-20T02:02:54;5.40;;;3.42;;
78131;SDS011;67381;47.672;9.380;2023-12-20T02:05:31;6.43;;;3.67;;
78131;SDS011;67381;47.672;9.380;2023-12-20T02:07:59;6.18;;;3.25;;
78131;SDS011;67381;47.672;9.380;2023-12-20T02:10:26;6.35;;;3.80;;
78131;SDS011;67381;47.672;9.380;2023-12-20T02:12:54;5.43;;;3.20;;
78131;SDS011;67381;47.672;9.380;2023-12-20T02:15:21;5.53;;;3.42;;
78131;SDS011;67381;47.672;9.380;2023-12-20T02:17:48;5.97;;;3.70;;
78131;SDS011;67381;47.672;9.380;2023-12-20T02:20:15;4.80;;;3.40;;
78131;SDS011;67381;47.672;9.380;2023-12-20T02:22:42;7.10;;;3.70;;
78131;SDS011;67381;47.672;9.380;2023-12-20T02:25:09;6.43;;;4.03;;
78131;SDS011;67381;47.672;9.380;2023-12-20T02:27:37;6.20;;;3.33;;
78131;SDS011;67381;47.672;9.380;2023-12-20T02:30:04;6.45;;;3.83;;
78131;SDS011;67381;47.672;9.380;2023-12-20T02:32:31;5.50;;;3.38;;
78131;SDS011;67381;47.672;9.380;2023-12-20T02:35:01;6.32;;;3.78;;
78131;SDS011;67381;47.672;9.380;2023-12-20T02:37:28;5.43;;;3.80;;
78131;SDS011;67381;47.672;9.380;2023-12-20T02:39:55;5.05;;;2.72;;
78131;SDS011;67381;47.672;9.380;2023-12-20T02:42:22;5.70;;;3.45;;
78131;SDS011;67381;47.672;9.380;2023-12-20T02:44:49;6.03;;;4.18;;
78131;SDS011;67381;47.672;9.380;2023-12-20T02:47:16;7.13;;;4.47;;
78131;SDS011;67381;47.672;9.380;2023-12-20T02:49:43;5.85;;;3.80;;
78131;SDS011;67381;47.672;9.380;2023-12-20T02:52:10;7.28;;;4.22;;
78131;SDS011;67381;47.672;9.380;2023-12-20T02:54:37;10.52;;;4.20;;
78131;SDS011;67381;47.672;9.380;2023-12-20T02:57:04;7.90;;;4.20;;
78131;SDS011;67381;47.672;9.380;2023-12-20T02:59:31;7.50;;;4.78;;
78131;SDS011;67381;47.672;9.380;2023-12-20T03:01:59;8.25;;;4.00;;
78131;SDS011;67381;47.672;9.380;2023-12-20T03:04:26;7.25;;;4.80;;
78131;SDS011;67381;47.672;9.380;2023-12-20T03:06:53;8.27;;;4.13;;
78131;SDS011;67381;47.672;9.380;2023-12-20T03:09:20;7.45;;;4.55;;
78131;SDS011;67381;47.672;9.380;2023-12-20T03:11:47;7.63;;;4.38;;
78131;SDS011;67381;47.672;9.380;2023-12-20T03:14:15;6.55;;;4.60;;
78131;SDS011;67381;47.672;9.380;2023-12-20T03:16:42;6.97;;;4.15;;
78131;SDS011;67381;47.672;9.380;2023-12-20T03:19:13;5.90;;;4.18;;
78131;SDS011;67381;47.672;9.380;2023-12-20T03:21:40;8.50;;;4.72;;
78131;SDS011;67381;47.672;9.380;2023-12-20T03:24:07;6.70;;;4.20;;
78131;SDS011;67381;47.672;9.380;2023-12-20T03:26:34;8.23;;;4.20;;
78131;SDS011;67381;47.672;9.380;2023-12-20T03:29:01;7.22;;;4.28;;
78131;SDS011;67381;47.672;9.380;2023-12-20T03:31:28;5.43;;;3.17;;
78131;SDS011;67381;47.672;9.380;2023-12-20T03:33:55;6.82;;;4.78;;
78131;SDS011;67381;47.672;9.380;2023-12-20T03:36:22;7.38;;;4.70;;
78131;SDS011;67381;47.672;9.380;2023-12-20T03:38:49;7.07;;;4.82;;
78131;SDS011;67381;47.672;9.380;2023-12-20T03:41:16;7.50;;;4.00;;
78131;SDS011;67381;47.672;9.380;2023-12-20T03:43:43;6.55;;;4.00;;
78131;SDS011;67381;47.672;9.380;2023-12-20T03:46:10;7.15;;;5.38;;
78131;SDS011;67381;47.672;9.380;2023-12-20T03:48:40;7.55;;;4.22;;
78131;SDS011;67381;47.672;9.380;2023-12-20T03:51:10;7.13;;;4.57;;
78131;SDS011;67381;47.672;9.380;2023-12-20T03:53:37;7.15;;;3.53;;
78131;SDS011;67381;47.672;9.380;2023-12-20T03:56:04;6.68;;;5.18;;
78131;SDS011;67381;47.672;9.380;2023-12-20T03:58:31;7.63;;;4.35;;
78131;SDS011;67381;47.672;9.380;2023-12-20T04:00:59;6.78;;;4.05;;
78131;SDS011;67381;47.672;9.380;2023-12-20T04:03:26;8.32;;;4.90;;
78131;SDS011;67381;47.672;9.380;2023-12-20T04:05:53;12.13;;;5.22;;
78131;SDS011;67381;47.672;9.380;2023-12-20T04:08:20;9.23;;;5.25;;
78131;SDS011;67381;47.672;9.380;2023-12-20T04:10:47;11.80;;;6.00;;
78131;SDS011;67381;47.672;9.380;2023-12-20T04:13:14;8.63;;;5.75;;
78131;SDS011;67381;47.672;9.380;2023-12-20T04:15:41;10.15;;;5.97;;
78131;SDS011;67381;47.672;9.380;2023-12-20T04:18:08;10.27;;;6.32;;
78131;SDS011;67381;47.672;9.380;2023-12-20T04:20:35;11.85;;;6.30;;
78131;SDS011;67381;47.672;9.380;2023-12-20T04:23:02;9.65;;;6.43;;
78131;SDS011;67381;47.672;9.380;2023-12-20T04:25:29;10.10;;;6.50;;
78131;SDS011;67381;47.672;9.380;2023-12-20T04:27:56;11.75;;;7.05;;
78131;SDS011;67381;47.672;9.380;2023-12-20T04:30:23;11.20;;;7.50;;
78131;SDS011;67381;47.672;9.380;2023-12-20T04:32:50;9.50;;;6.35;;
78131;SDS011;67381;47.672;9.380;2023-12-20T04:35:20;9.77;;;6.13;;
78131;SDS011;67381;47.672;9.380;2023-12-20T04:37:47;10.43;;;6.65;;
78131;SDS011;67381;47.672;9.380;2023-12-20T04:40:16;9.60;;;5.75;;
78131;SDS011;67381;47.672;9.380;2023-12-20T04:42:46;11.45;;;7.90;;
78131;SDS011;67381;47.672;9.380;2023-12-20T04:45:13;10.93;;;6.57;;
78131;SDS011;67381;47.672;9.380;2023-12-20T04:47:42;10.23;;;6.65;;
78131;SDS011;67381;47.672;9.380;2023-12-20T04:50:12;7.88;;;5.85;;
78131;SDS011;67381;47.672;9.380;2023-12-20T04:52:40;9.65;;;6.90;;
78131;SDS011;67381;47.672;9.380;2023-12-20T04:55:10;8.70;;;6.47;;
78131;SDS011;67381;47.672;9.380;2023-12-20T04:57:37;9.73;;;5.82;;
78131;SDS011;67381;47.672;9.380;2023-12-20T05:00:07;10.13;;;6.03;;
78131;SDS011;67381;47.672;9.380;2023-12-20T05:02:35;9.25;;;6.30;;
78131;SDS011;67381;47.672;9.380;2023-12-20T05:05:03;8.57;;;5.75;;
78131;SDS011;67381;47.672;9.380;2023-12-20T05:07:30;8.50;;;5.68;;
78131;SDS011;67381;47.672;9.380;2023-12-20T05:09:57;9.48;;;5.97;;
78131;SDS011;67381;47.672;9.380;2023-12-20T05:12:24;9.73;;;5.50;;
78131;SDS011;67381;47.672;9.380;2023-12-20T05:14:52;10.30;;;5.47;;
78131;SDS011;67381;47.672;9.380;2023-12-20T05:17:19;10.38;;;5.93;;
78131;SDS011;67381;47.672;9.380;2023-12-20T05:19:47;10.13;;;5.28;;
78131;SDS011;67381;47.672;9.380;2023-12-20T05:22:14;9.57;;;6.43;;
78131;SDS011;67381;47.672;9.380;2023-12-20T05:24:41;9.73;;;6.82;;
78131;SDS011;67381;47.672;9.380;2023-12-20T05:27:08;8.82;;;5.90;;
78131;SDS011;67381;47.672;9.380;2023-12-20T05:29:35;9.73;;;5.68;;
78131;SDS011;67381;47.672;9.380;2023-12-20T05:32:02;9.35;;;6.15;;
78131;SDS011;67381;47.672;9.380;2023-12-20T05:34:31;8.25;;;5.10;;
78131;SDS011;67381;47.672;9.380;2023-12-20T05:36:58;8.38;;;5.50;;
78131;SDS011;67381;47.672;9.380;2023-12-20T05:39:25;7.13;;;4.80;;
78131;SDS011;67381;47.672;9.380;2023-12-20T05:41:52;7.78;;;5.38;;
78131;SDS011;67381;47.672;9.380;2023-12-20T05:44:19;10.80;;;5.32;;
78131;SDS011;67381;47.672;9.380;2023-12-20T05:46:49;8.20;;;5.40;;
78131;SDS011;67381;47.672;9.380;2023-12-20T05:49:16;9.35;;;5.15;;
78131;SDS011;67381;47.672;9.380;2023-12-20T05:51:43;9.73;;;5.90;;
78131;SDS011;67381;47.672;9.380;2023-12-20T05:54:10;8.13;;;5.47;;
78131;SDS011;67381;47.672;9.380;2023-12-20T05:56:37;7.93;;;5.40;;
78131;SDS011;67381;47.672;9.380;2023-12-20T05:59:04;7.63;;;5.00;;
78131;SDS011;67381;47.672;9.380;2023-12-20T06:01:32;8.00;;;5.60;;
78131;SDS011;67381;47.672;9.380;2023-12-20T06:03:59;9.85;;;5.35;;
78131;SDS011;67381;47.672;9.380;2023-12-20T06:06:26;8.50;;;4.95;;
78131;SDS011;67381;47.672;9.380;2023-12-20T06:08:53;8.00;;;5.00;;
78131;SDS011;67381;47.672;9.380;2023-12-20T06:11:20;6.85;;;4.22;;
78131;SDS011;67381;47.672;9.380;2023-12-20T06:13:47;6.80;;;4.90;;
78131;SDS011;67381;47.672;9.380;2023-12-20T06:16:15;6.78;;;4.80;;
78131;SDS011;67381;47.672;9.380;2023-12-20T06:18:42;7.45;;;4.03;;
78131;SDS011;67381;47.672;9.380;2023-12-20T06:21:10;7.38;;;4.22;;
78131;SDS011;67381;47.672;9.380;2023-12-20T06:23:40;7.07;;;4.45;;
78131;SDS011;67381;47.672;9.380;2023-12-20T06:26:07;6.93;;;4.22;;
78131;SDS011;67381;47.672;9.380;2023-12-20T06:28:34;8.07;;;5.03;;
78131;SDS011;67381;47.672;9.380;2023-12-20T06:31:01;5.50;;;3.67;;
78131;SDS011;67381;47.672;9.380;2023-12-20T06:33:29;7.93;;;3.83;;
78131;SDS011;67381;47.672;9.380;2023-12-20T06:35:57;5.95;;;4.10;;
78131;SDS011;67381;47.672;9.380;2023-12-20T06:38:24;5.10;;;3.22;;
78131;SDS011;67381;47.672;9.380;2023-12-20T06:40:52;6.43;;;3.78;;
78131;SDS011;67381;47.672;9.380;2023-12-20T06:43:19;6.82;;;3.58;;
78131;SDS011;67381;47.672;9.380;2023-12-20T06:45:46;5.88;;;3.97;;
78131;SDS011;67381;47.672;9.380;2023-12-20T06:48:13;5.93;;;3.40;;
78131;SDS011;67381;47.672;9.380;2023-12-20T06:50:40;4.93;;;3.38;;
78131;SDS011;67381;47.672;9.380;2023-12-20T06:53:11;6.72;;;3.58;;
78131;SDS011;67381;47.672;9.380;2023-12-20T06:55:38;5.10;;;3.42;;
78131;SDS011;67381;47.672;9.380;2023-12-20T06:58:05;5.20;;;3.00;;
78131;SDS011;67381;47.672;9.380;2023-12-20T07:00:33;6.65;;;3.67;;
78131;SDS011;67381;47.672;9.380;2023-12-20T07:03:00;5.47;;;3.25;;
78131;SDS011;67381;47.672;9.380;2023-12-20T07:05:27;6.20;;;4.38;;
78131;SDS011;67381;47.672;9.380;2023-12-20T07:07:54;6.05;;;3.83;;
78131;SDS011;67381;47.672;9.380;2023-12-20T07:10:21;5.55;;;3.63;;
78131;SDS011;67381;47.672;9.380;2023-12-20T07:12:49;7.18;;;4.28;;
78131;SDS011;67381;47.672;9.380;2023-12-20T07:15:17;6.30;;;4.10;;
78131;SDS011;67381;47.672;9.380;2023-12-20T07:17:45;5.43;;;3.72;;
78131;SDS011;67381;47.672;9.380;2023-12-20T07:20:12;5.60;;;3.30;;
78131;SDS011;67381;47.672;9.380;2023-12-20T07:22:39;6.30;;;4.25;;
78131;SDS011;67381;47.672;9.380;2023-12-20T07:25:09;7.97;;;4.88;;
78131;SDS011;67381;47.672;9.380;2023-12-20T07:27:37;6.43;;;4.32;;
78131;SDS011;67381;47.672;9.380;2023-12-20T07:30:04;9.02;;;4.95;;
78131;SDS011;67381;47.672;9.380;2023-12-20T07:32:31;8.10;;;4.93;;
78131;SDS011;67381;47.672;9.380;2023-12-20T07:34:59;6.97;;;4.82;;
78131;SDS011;67381;47.672;9.380;2023-12-20T07:37:26;8.68;;;5.45;;
78131;SDS011;67381;47.672;9.380;2023-12-20T07:39:53;9.38;;;5.88;;
78131;SDS011;67381;47.672;9.380;2023-12-20T07:42:20;9.82;;;5.47;;
78131;SDS011;67381;47.672;9.380;2023-12-20T07:44:48;8.05;;;5.35;;
78131;SDS011;67381;47.672;9.380;2023-12-20T07:47:15;7.57;;;4.82;;
78131;SDS011;67381;47.672;9.380;2023-12-20T07:49:49;9.65;;;5.97;;
78131;SDS011;67381;47.672;9.380;2023-12-20T07:52:18;9.20;;;6.28;;
78131;SDS011;67381;47.672;9.380;2023-12-20T07:54:45;12.20;;;5.28;;
78131;SDS011;67381;47.672;9.380;2023-12-20T07:57:13;9.77;;;6.15;;
78131;SDS011;67381;47.672;9.380;2023-12-20T07:59:42;8.68;;;6.10;;
78131;SDS011;67381;47.672;9.380;2023-12-20T08:02:11;10.35;;;6.60;;
78131;SDS011;67381;47.672;9.380;2023-12-20T08:04:38;10.15;;;6.53;;
78131;SDS011;67381;47.672;9.380;2023-12-20T08:07:05;10.00;;;6.85;;
78131;SDS011;67381;47.672;9.380;2023-12-20T08:09:32;7.38;;;4.30;;
78131;SDS011;67381;47.672;9.380;2023-12-20T08:12:00;7.63;;;5.13;;
78131;SDS011;67381;47.672;9.380;2023-12-20T08:14:27;9.13;;;5.80;;
78131;SDS011;67381;47.672;9.380;2023-12-20T08:16:54;7.90;;;5.57;;
78131;SDS011;67381;47.672;9.380;2023-12-20T08:19:22;9.07;;;6.00;;
78131;SDS011;67381;47.672;9.380;2023-12-20T08:21:49;9.45;;;6.20;;
78131;SDS011;67381;47.672;9.380;2023-12-20T08:24:18;8.77;;;5.95;;
78131;SDS011;67381;47.672;9.380;2023-12-20T08:26:45;8.43;;;5.38;;
78131;SDS011;67381;47.672;9.380;2023-12-20T08:29:13;7.95;;;5.80;;
78131;SDS011;67381;47.672;9.380;2023-12-20T08:31:40;7.97;;;5.25;;
78131;SDS011;67381;47.672;9.380;2023-12-20T08:34:08;9.80;;;6.53;;
78131;SDS011;67381;47.672;9.380;2023-12-20T08:36:35;9.27;;;6.22;;
78131;SDS011;67381;47.672;9.380;2023-12-20T08:39:02;9.95;;;6.35;;
78131;SDS011;67381;47.672;9.380;2023-12-20T08:41:33;9.52;;;6.85;;
78131;SDS011;67381;47.672;9.380;2023-12-20T08:44:00;8.15;;;6.38;;
78131;SDS011;67381;47.672;9.380;2023-12-20T08:46:27;10.43;;;6.38;;
78131;SDS011;67381;47.672;9.380;2023-12-20T08:48:54;10.10;;;7.43;;
78131;SDS011;67381;47.672;9.380;2023-12-20T08:51:21;11.93;;;7.18;;
78131;SDS011;67381;47.672;9.380;2023-12-20T08:53:50;10.05;;;6.78;;
78131;SDS011;67381;47.672;9.380;2023-12-20T08:56:17;11.38;;;6.93;;
78131;SDS011;67381;47.672;9.380;2023-12-20T08:58:45;10.50;;;6.07;;
78131;SDS011;67381;47.672;9.380;2023-12-20T09:01:13;10.45;;;5.70;;
78131;SDS011;67381;47.672;9.380;2023-12-20T09:03:40;8.85;;;6.47;;
78131;SDS011;67381;47.672;9.380;2023-12-20T09:06:07;8.73;;;5.57;;
78131;SDS011;67381;47.672;9.380;2023-12-20T09:08:34;8.43;;;6.30;;
78131;SDS011;67381;47.672;9.380;2023-12-20T09:11:01;7.55;;;5.97;;
78131;SDS011;67381;47.672;9.380;2023-12-20T09:13:29;8.73;;;6.32;;
78131;SDS011;67381;47.672;9.380;2023-12-20T09:15:56;7.22;;;4.82;;
78131;SDS011;67381;47.672;9.380;2023-12-20T09:18:23;8.85;;;4.95;;
78131;SDS011;67381;47.672;9.380;2023-12-20T09:20:51;8.38;;;6.13;;
78131;SDS011;67381;47.672;9.380;2023-12-20T09:23:18;7.78;;;5.57;;
78131;SDS011;67381;47.672;9.380;2023-12-20T09:25:45;7.63;;;5.57;;
78131;SDS011;67381;47.672;9.380;2023-12-20T09:28:12;6.25;;;4.72;;
78131;SDS011;67381;47.672;9.380;2023-12-20T09:30:40;8.20;;;5.88;;
78131;SDS011;67381;47.672;9.380;2023-12-20T09:33:07;6.72;;;4.93;;
78131;SDS011;67381;47.672;9.380;2023-12-20T09:35:34;6.82;;;5.03;;
78131;SDS011;67381;47.672;9.380;2023-12-20T09:38:02;6.32;;;5.07;;
78131;SDS011;67381;47.672;9.380;2023-12-20T09:40:29;7.30;;;5.13;;
78131;SDS011;67381;47.672;9.380;2023-12-20T09:43:04;7.30;;;5.68;;
78131;SDS011;67381;47.672;9.380;2023-12-20T09:45:35;6.90;;;4.82;;
78131;SDS011;67381;47.672;9.380;2023-12-20T09:48:03;6.93;;;4.53;;
78131;SDS011;67381;47.672;9.380;2023-12-20T09:50:31;7.70;;;5.03;;
78131;SDS011;67381;47.672;9.380;2023-12-20T09:53:00;7.00;;;4.93;;
78131;SDS011;67381;47.672;9.380;2023-12-20T09:55:28;6.72;;;4.60;;
78131;SDS011;67381;47.672;9.380;2023-12-20T09:57:56;7.57;;;4.50;;
78131;SDS011;67381;47.672;9.380;2023-12-20T10:00:23;6.15;;;4.07;;
78131;SDS011;67381;47.672;9.380;2023-12-20T10:02:56;7.70;;;5.85;;
78131;SDS011;67381;47.672;9.380;2023-12-20T10:05:33;6.82;;;4.53;;
78131;SDS011;67381;47.672;9.380;2023-12-20T10:08:01;5.82;;;4.07;;
78131;SDS011;67381;47.672;9.380;2023-12-20T10:10:28;6.18;;;3.67;;
78131;SDS011;67381;47.672;9.380;2023-12-20T10:13:15;7.00;;;4.40;;
78131;SDS011;67381;47.672;9.380;2023-12-20T10:15:42;5.57;;;4.15;;
78131;SDS011;67381;47.672;9.380;2023-12-20T10:18:11;6.60;;;4.45;;
78131;SDS011;67381;47.672;9.380;2023-12-20T10:20:41;6.90;;;4.43;;
78131;SDS011;67381;47.672;9.380;2023-12-20T10:23:10;6.25;;;4.47;;
78131;SDS011;67381;47.672;9.380;2023-12-20T10:25:37;6.55;;;5.00;;
78131;SDS011;67381;47.672;9.380;2023-12-20T10:28:14;5.35;;;3.60;;
78131;SDS011;67381;47.672;9.380;2023-12-20T10:30:41;7.60;;;4.43;;
78131;SDS011;67381;47.672;9.380;2023-12-20T10:33:08;6.35;;;3.95;;
78131;SDS011;67381;47.672;9.380;2023-12-20T10:35:37;7.15;;;4.40;;
78131;SDS011;67381;47.672;9.380;2023-12-20T10:38:05;6.38;;;4.65;;
78131;SDS011;67381;47.672;9.380;2023-12-20T10:40:36;7.45;;;4.50;;
78131;SDS011;67381;47.672;9.380;2023-12-20T10:43:06;6.13;;;4.05;;
78131;SDS011;67381;47.672;9.380;2023-12-20T10:45:35;4.75;;;3.50;;
78131;SDS011;67381;47.672;9.380;2023-12-20T10:48:02;5.82;;;3.72;;
78131;SDS011;67381;47.672;9.380;2023-12-20T10:50:32;6.30;;;3.97;;
78131;SDS011;67381;47.672;9.380;2023-12-20T10:53:03;9.65;;;3.97;;
78131;SDS011;67381;47.672;9.380;2023-12-20T10:55:30;6.00;;;4.00;;
78131;SDS011;67381;47.672;9.380;2023-12-20T10:58:00;4.63;;;3.22;;
78131;SDS011;67381;47.672;9.380;2023-12-20T11:00:28;5.72;;;3.50;;
78131;SDS011;67381;47.672;9.380;2023-12-20T11:02:57;6.22;;;3.55;;
78131;SDS011;67381;47.672;9.380;2023-12-20T11:08:15;4.57;;;3.22;;
78131;SDS011;67381;47.672;9.380;2023-12-20T11:13:18;3.90;;;2.97;;
78131;SDS011;67381;47.672;9.380;2023-12-20T11:15:47;5.35;;;2.80;;
78131;SDS011;67381;47.672;9.380;2023-12-20T11:18:14;4.40;;;2.88;;
78131;SDS011;67381;47.672;9.380;2023-12-20T11:20:41;5.82;;;4.30;;
78131;SDS011;67381;47.672;9.380;2023-12-20T11:23:11;6.55;;;4.05;;
78131;SDS011;67381;47.672;9.380;2023-12-20T11:25:52;4.35;;;3.30;;
78131;SDS011;67381;47.672;9.380;2023-12-20T11:28:23;5.25;;;3.22;;
78131;SDS011;67381;47.672;9.380;2023-12-20T11:30:50;6.38;;;3.45;;
78131;SDS011;67381;47.672;9.380;2023-12-20T11:33:24;6.63;;;3.88;;
78131;SDS011;67381;47.672;9.380;2023-12-20T11:38:19;4.90;;;3.45;;
78131;SDS011;67381;47.672;9.380;2023-12-20T11:40:49;4.35;;;2.42;;
78131;SDS011;67381;47.672;9.380;2023-12-20T11:43:35;5.93;;;3.75;;
78131;SDS011;67381;47.672;9.380;2023-12-20T11:46:05;4.90;;;3.17;;
78131;SDS011;67381;47.672;9.380;2023-12-20T11:48:39;4.90;;;3.38;;
78131;SDS011;67381;47.672;9.380;2023-12-20T11:51:10;5.72;;;3.10;;
78131;SDS011;67381;47.672;9.380;2023-12-20T11:53:38;9.38;;;5.32;;
78131;SDS011;67381;47.672;9.380;2023-12-20T11:56:05;8.07;;;4.07;;
78131;SDS011;67381;47.672;9.380;2023-12-20T11:58:33;3.70;;;2.47;;
78131;SDS011;67381;47.672;9.380;2023-12-20T12:01:00;5.18;;;3.28;;
78131;SDS011;67381;47.672;9.380;2023-12-20T12:03:29;4.82;;;2.72;;
78131;SDS011;67381;47.672;9.380;2023-12-20T12:05:57;6.00;;;2.90;;
78131;SDS011;67381;47.672;9.380;2023-12-20T12:08:25;3.42;;;2.50;;
78131;SDS011;67381;47.672;9.380;2023-12-20T12:10:52;4.75;;;2.80;;
78131;SDS011;67381;47.672;9.380;2023-12-20T12:13:19;3.88;;;2.38;;
78131;SDS011;67381;47.672;9.380;2023-12-20T12:15:47;4.88;;;2.55;;
78131;SDS011;67381;47.672;9.380;2023-12-20T12:18:17;4.05;;;2.22;;
78131;SDS011;67381;47.672;9.380;2023-12-20T12:20:47;3.08;;;1.73;;
78131;SDS011;67381;47.672;9.380;2023-12-20T12:23:14;3.05;;;2.40;;
78131;SDS011;67381;47.672;9.380;2023-12-20T12:25:49;3.28;;;1.90;;
78131;SDS011;67381;47.672;9.380;2023-12-20T12:28:16;4.30;;;2.13;;
78131;SDS011;67381;47.672;9.380;2023-12-20T12:30:55;3.08;;;2.08;;
78131;SDS011;67381;47.672;9.380;2023-12-20T12:33:22;2.30;;;1.50;;
78131;SDS011;67381;47.672;9.380;2023-12-20T12:35:49;2.85;;;2.15;;
78131;SDS011;67381;47.672;9.380;2023-12-20T12:38:19;3.67;;;1.75;;
78131;SDS011;67381;47.672;9.380;2023-12-20T12:40:46;2.85;;;1.83;;
78131;SDS011;67381;47.672;9.380;2023-12-20T12:43:14;3.03;;;2.03;;
78131;SDS011;67381;47.672;9.380;2023-12-20T12:45:43;3.17;;;1.92;;
78131;SDS011;67381;47.672;9.380;2023-12-20T12:48:11;2.42;;;1.40;;
78131;SDS011;67381;47.672;9.380;2023-12-20T12:50:39;3.50;;;2.30;;
78131;SDS011;67381;47.672;9.380;2023-12-20T12:53:06;3.25;;;1.85;;
78131;SDS011;67381;47.672;9.380;2023-12-20T12:55:34;2.85;;;1.95;;
78131;SDS011;67381;47.672;9.380;2023-12-20T12:58:01;2.22;;;1.42;;
78131;SDS011;67381;47.672;9.380;2023-12-20T13:00:28;2.30;;;1.52;;
78131;SDS011;67381;47.672;9.380;2023-12-20T13:02:55;2.65;;;1.63;;
78131;SDS011;67381;47.672;9.380;2023-12-20T13:05:22;2.40;;;1.50;;
78131;SDS011;67381;47.672;9.380;2023-12-20T13:07:50;2.55;;;1.75;;
78131;SDS011;67381;47.672;9.380;2023-12-20T13:10:20;2.28;;;1.48;;
78131;SDS011;67381;47.672;9.380;2023-12-20T13:12:49;2.45;;;1.63;;
78131;SDS011;67381;47.672;9.380;2023-12-20T13:15:16;2.22;;;1.40;;
78131;SDS011;67381;47.672;9.380;2023-12-20T13:17:43;2.70;;;1.33;;
78131;SDS011;67381;47.672;9.380;2023-12-20T13:20:13;2.22;;;1.35;;
78131;SDS011;67381;47.672;9.380;2023-12-20T13:22:40;5.38;;;1.77;;
78131;SDS011;67381;47.672;9.380;2023-12-20T13:25:07;5.72;;;2.70;;
78131;SDS011;67381;47.672;9.380;2023-12-20T13:27:34;3.10;;;1.70;;
78131;SDS011;67381;47.672;9.380;2023-12-20T13:30:01;7.03;;;3.45;;
78131;SDS011;67381;47.672;9.380;2023-12-20T13:32:29;2.50;;;1.00;;
78131;SDS011;67381;47.672;9.380;2023-12-20T13:34:59;2.88;;;1.75;;
78131;SDS011;67381;47.672;9.380;2023-12-20T13:37:26;2.33;;;1.50;;
78131;SDS011;67381;47.672;9.380;2023-12-20T13:39:54;2.72;;;1.63;;
78131;SDS011;67381;47.672;9.380;2023-12-20T13:42:21;2.55;;;1.42;;
78131;SDS011;67381;47.672;9.380;2023-12-20T13:44:48;2.63;;;1.73;;
78131;SDS011;67381;47.672;9.380;2023-12-20T13:47:15;3.85;;;1.42;;
78131;SDS011;67381;47.672;9.380;2023-12-20T13:49:42;2.40;;;1.40;;
78131;SDS011;67381;47.672;9.380;2023-12-20T13:52:12;2.22;;;1.00;;
78131;SDS011;67381;47.672;9.380;2023-12-20T13:54:39;2.75;;;1.25;;
78131;SDS011;67381;47.672;9.380;2023-12-20T13:57:06;3.00;;;1.73;;
78131;SDS011;67381;47.672;9.380;2023-12-20T13:59:33;2.20;;;1.20;;
78131;SDS011;67381;47.672;9.380;2023-12-20T14:02:03;2.42;;;1.00;;
78131;SDS011;67381;47.672;9.380;2023-12-20T14:04:30;2.47;;;1.27;;
78131;SDS011;67381;47.672;9.380;2023-12-20T14:06:58;1.80;;;1.20;;
78131;SDS011;67381;47.672;9.380;2023-12-20T14:09:25;2.00;;;1.38;;
78131;SDS011;67381;47.672;9.380;2023-12-20T14:11:52;1.73;;;1.10;;
78131;SDS011;67381;47.672;9.380;2023-12-20T14:14:19;2.83;;;1.13;;
78131;SDS011;67381;47.672;9.380;2023-12-20T14:16:46;2.13;;;1.13;;
78131;SDS011;67381;47.672;9.380;2023-12-20T14:19:13;2.35;;;1.15;;
78131;SDS011;67381;47.672;9.380;2023-12-20T14:21:40;2.97;;;1.40;;
78131;SDS011;67381;47.672;9.380;2023-12-20T14:24:07;1.88;;;1.23;;
78131;SDS011;67381;47.672;9.380;2023-12-20T14:26:37;2.78;;;1.45;;
78131;SDS011;67381;47.672;9.380;2023-12-20T14:29:05;2.63;;;1.30;;
78131;SDS011;67381;47.672;9.380;2023-12-20T14:31:34;2.08;;;1.20;;
78131;SDS011;67381;47.672;9.380;2023-12-20T14:34:01;4.63;;;1.58;;
78131;SDS011;67381;47.672;9.380;2023-12-20T14:36:30;2.65;;;1.10;;
78131;SDS011;67381;47.672;9.380;2023-12-20T14:38:57;3.80;;;1.48;;
78131;SDS011;67381;47.672;9.380;2023-12-20T14:41:24;2.70;;;1.30;;
78131;SDS011;67381;47.672;9.380;2023-12-20T14:43:54;2.40;;;1.30;;
78131;SDS011;67381;47.672;9.380;2023-12-20T14:46:25;2.28;;;1.40;;
78131;SDS011;67381;47.672;9.380;2023-12-20T14:48:52;2.50;;;1.33;;
78131;SDS011;67381;47.672;9.380;2023-12-20T14:51:19;2.65;;;0.98;;
78131;SDS011;67381;47.672;9.380;2023-12-20T14:53:46;3.80;;;1.70;;
78131;SDS011;67381;47.672;9.380;2023-12-20T14:56:14;1.73;;;1.33;;
78131;SDS011;67381;47.672;9.380;2023-12-20T14:58:41;4.03;;;1.60;;